Time;durP1;ratioP1;P1;durP2;ratioP2;P2;SDS_P1;SDS_P2;PMS_P1;PMS_P2;Temp;Humidity;BMP_temperature;BMP_pressure;BME280_temperature;BME280_humidity;BME280_pressure;Samples;Min_cycle;Max_cycle;Signal;HPM_P1;HPM_P2
2023/06/28 00:02:25;;;;;;;6.70;6.10;;;;;;;25.13;46.98;94858.94;6189900;22;109214;-62
2023/06/28 00:05:28;;;;;;;6.67;6.17;;;;;;;25.17;47.21;94867.84;6192133;28;109067;-64
2023/06/28 00:08:31;;;;;;;6.10;5.60;;;;;;;25.17;47.26;94865.97;6185315;28;109103;-64
2023/06/28 00:11:36;;;;;;;7.07;6.37;;;;;;;25.16;47.18;94867.06;6184357;28;109107;-62
2023/06/28 00:14:39;;;;;;;7.30;6.60;;;;;;;25.15;47.21;94865.50;6180719;28;109410;-63
2023/06/28 00:17:42;;;;;;;6.40;5.90;;;;;;;25.16;46.90;94860.94;6195803;28;109741;-63
2023/06/28 00:20:45;;;;;;;6.70;6.20;;;;;;;25.09;47.10;94851.56;6185047;28;109467;-64
2023/06/28 00:23:49;;;;;;;6.70;6.20;;;;;;;25.14;47.42;94847.09;6188660;28;109870;-63
2023/06/28 00:26:53;;;;;;;6.50;5.93;;;;;;;25.14;47.09;94863.16;6173410;28;109107;-63
2023/06/28 00:29:57;;;;;;;6.70;6.20;;;;;;;25.14;47.50;94863.16;6185140;28;109050;-62
2023/06/28 00:33:00;;;;;;;6.40;5.80;;;;;;;25.11;47.31;94858.47;6185658;28;109297;-62
2023/06/28 00:36:03;;;;;;;7.23;6.50;;;;;;;25.12;46.95;94860.81;6188327;28;110139;-62
2023/06/28 00:39:06;;;;;;;6.90;6.17;;;;;;;25.13;47.42;94859.72;6177054;28;109311;-62
2023/06/28 00:42:11;;;;;;;7.63;6.93;;;;;;;25.13;47.36;94862.38;6184386;28;109066;-62
2023/06/28 00:45:14;;;;;;;6.27;5.77;;;;;;;25.10;47.09;94868.41;6192348;28;109041;-63
2023/06/28 00:48:18;;;;;;;7.20;6.60;;;;;;;25.14;47.12;94868.53;6179574;28;110318;-65
2023/06/28 00:51:22;;;;;;;6.80;6.20;;;;;;;25.09;47.17;94867.63;6187520;28;109061;-63
2023/06/28 00:54:25;;;;;;;6.73;6.00;;;;;;;25.09;47.31;94872.19;6192262;28;109125;-63
2023/06/28 00:57:30;;;;;;;7.33;6.70;;;;;;;25.16;47.27;94868.97;6189274;28;109036;-62
2023/06/28 01:00:33;;;;;;;6.40;5.90;;;;;;;25.14;46.82;94866.63;6177659;28;109076;-63
2023/06/28 01:03:36;;;;;;;7.13;6.57;;;;;;;25.07;47.09;94867.16;6188120;28;109855;-63
2023/06/28 01:06:41;;;;;;;6.70;6.20;;;;;;;25.06;47.07;94868.28;6180790;28;110210;-63
2023/06/28 01:09:44;;;;;;;6.63;6.03;;;;;;;25.05;47.10;94864.03;6163909;28;109418;-62
2023/06/28 01:12:50;;;;;;;6.33;5.83;;;;;;;24.91;47.07;94870.78;6179808;28;110028;-66
2023/06/28 01:15:53;;;;;;;7.20;6.70;;;;;;;24.91;47.04;94865.44;6190005;28;108863;-67
2023/06/28 01:18:56;;;;;;;7.13;6.53;;;;;;;24.88;47.23;94861.53;6178086;28;109667;-67
2023/06/28 01:22:02;;;;;;;6.83;6.13;;;;;;;24.88;47.30;94866.88;6167358;28;109925;-65
2023/06/28 01:25:09;;;;;;;7.13;6.53;;;;;;;24.88;46.98;94866.09;6170654;28;109198;-64
2023/06/28 01:28:13;;;;;;;7.30;6.70;;;;;;;24.88;47.18;94858.84;6193588;28;110138;-64
2023/06/28 01:31:17;;;;;;;6.90;6.20;;;;;;;24.91;47.03;94855.50;6176958;28;109543;-66
2023/06/28 01:34:22;;;;;;;6.83;6.20;;;;;;;24.94;46.89;94864.78;6193066;28;112138;-66
2023/06/28 01:37:25;;;;;;;6.80;6.20;;;;;;;24.98;47.24;94863.78;6208990;28;108962;-65
2023/06/28 01:40:35;;;;;;;6.77;6.27;;;;;;;25.01;47.18;94868.47;6181057;28;109297;-75
2023/06/28 01:43:40;;;;;;;7.03;6.43;;;;;;;24.90;47.18;94861.97;6180287;28;109084;-66
2023/06/28 01:46:43;;;;;;;6.87;6.20;;;;;;;24.83;47.69;94864.38;6175028;28;109102;-65
2023/06/28 01:49:47;;;;;;;6.43;5.93;;;;;;;24.86;47.11;94862.94;6186544;28;108773;-66
2023/06/28 01:52:50;;;;;;;7.23;6.53;;;;;;;24.79;47.43;94871.50;6175845;28;109061;-66
2023/06/28 01:55:55;;;;;;;6.70;6.20;;;;;;;24.84;47.02;94870.50;6182066;28;110051;-66
2023/06/28 01:58:58;;;;;;;6.43;5.93;;;;;;;24.85;47.40;94878.22;6166490;28;109321;-67
2023/06/28 02:02:01;;;;;;;6.97;6.20;;;;;;;24.88;46.75;94874.91;6170215;28;109626;-67
2023/06/28 02:05:04;;;;;;;6.80;6.27;;;;;;;24.88;47.03;94877.56;6167574;28;109815;-69
2023/06/28 02:08:08;;;;;;;7.20;6.60;;;;;;;24.83;46.93;94876.97;6180080;28;109851;-66
2023/06/28 02:11:12;;;;;;;6.00;5.60;;;;;;;24.77;47.06;94871.03;6163662;28;109086;-66
2023/06/28 02:14:15;;;;;;;6.93;6.33;;;;;;;24.75;47.43;94881.28;6170792;28;109192;-67
2023/06/28 02:17:20;;;;;;;6.30;5.80;;;;;;;24.64;47.52;94878.19;6185093;28;110025;-65
2023/06/28 02:20:23;;;;;;;7.23;6.53;;;;;;;24.75;47.18;94875.94;6176737;28;109095;-66
2023/06/28 02:23:27;;;;;;;7.23;6.63;;;;;;;24.78;47.30;94878.75;6178887;28;108681;-60
2023/06/28 02:26:32;;;;;;;7.50;6.80;;;;;;;24.81;46.96;94885.34;6172221;28;110138;-64
2023/06/28 02:29:35;;;;;;;7.30;6.70;;;;;;;24.76;46.90;94885.53;6167061;28;109063;-61
2023/06/28 02:32:38;;;;;;;7.30;6.70;;;;;;;24.73;47.38;94888.88;6155785;28;109375;-62
2023/06/28 02:35:41;;;;;;;8.03;7.23;;;;;;;24.74;47.01;94893.13;6191121;28;110180;-62
2023/06/28 02:38:44;;;;;;;7.03;6.40;;;;;;;24.70;47.59;94893.00;6163358;28;109002;-61
2023/06/28 02:41:49;;;;;;;7.50;6.80;;;;;;;24.67;47.32;94893.59;6161813;28;110133;-68
2023/06/28 02:44:52;;;;;;;7.70;7.00;;;;;;;24.69;47.47;94885.25;6189215;28;110135;-62
2023/06/28 02:47:55;;;;;;;6.93;6.40;;;;;;;24.70;47.43;94881.50;6188258;28;110012;-62
2023/06/28 02:50:58;;;;;;;8.30;7.60;;;;;;;24.69;47.48;94877.22;6180857;28;110023;-61
2023/06/28 02:54:01;;;;;;;8.03;7.23;;;;;;;24.74;47.60;94879.72;6161026;28;110646;-62
2023/06/28 02:57:09;;;;;;;10.17;8.70;;;;;;;24.74;47.29;94885.09;6193927;28;110057;-62
2023/06/28 03:00:13;;;;;;;12.13;11.00;;;;;;;24.65;47.58;94870.94;6162040;28;109311;-68
2023/06/28 03:03:17;;;;;;;14.10;13.00;;;;;;;24.68;47.79;94883.69;6163369;28;110051;-61
2023/06/28 03:06:20;;;;;;;12.30;11.30;;;;;;;24.69;47.83;94882.59;6167049;28;109499;-61
2023/06/28 03:09:23;;;;;;;16.03;14.53;;;;;;;24.61;47.97;94884.19;6163907;28;109311;-60
2023/06/28 03:12:28;;;;;;;19.57;17.87;;;;;;;24.52;47.91;94896.03;6178530;28;109323;-61
2023/06/28 03:15:31;;;;;;;10.87;9.87;;;;;;;24.39;48.06;94889.84;6179781;28;110123;-61
2023/06/28 03:18:34;;;;;;;10.30;9.30;;;;;;;24.37;48.05;94905.44;6180690;28;109210;-61
2023/06/28 03:21:37;;;;;;;13.27;11.80;;;;;;;24.35;47.89;94891.59;6161970;28;109289;-61
2023/06/28 03:24:40;;;;;;;16.90;15.17;;;;;;;24.42;48.18;94892.66;6169576;28;109502;-60
2023/06/28 03:27:45;;;;;;;24.33;17.97;;;;;;;24.38;48.74;94890.97;6169034;28;109630;-60
2023/06/28 03:30:48;;;;;;;15.80;14.20;;;;;;;24.26;48.92;94888.97;6184940;28;109094;-60
2023/06/28 03:33:51;;;;;;;13.17;11.93;;;;;;;23.97;49.72;94897.72;6182080;28;109841;-66
2023/06/28 03:36:54;;;;;;;11.77;10.57;;;;;;;23.82;50.43;94899.03;6183200;28;109912;-64
2023/06/28 03:40:08;;;;;;;11.23;10.10;;;;;;;23.76;50.24;94892.31;6159869;28;109252;-65
2023/06/28 03:43:13;;;;;;;11.23;9.47;;;;;;;23.83;49.83;94900.59;6178099;28;109452;-72
2023/06/28 03:46:16;;;;;;;9.90;8.90;;;;;;;23.94;49.69;94894.91;6186813;28;110200;-64
2023/06/28 03:49:19;;;;;;;10.00;9.10;;;;;;;24.05;49.51;94888.94;6176949;28;109035;-64
2023/06/28 03:52:22;;;;;;;9.43;8.60;;;;;;;24.26;49.18;94894.31;6169716;28;111407;-65
2023/06/28 03:55:25;;;;;;;11.03;9.90;;;;;;;24.25;49.45;94892.75;6165687;28;109794;-65
2023/06/28 03:58:30;;;;;;;14.13;9.30;;;;;;;24.16;49.42;94883.97;6189263;28;108705;-65
2023/06/28 04:01:34;;;;;;;11.73;10.30;;;;;;;24.36;49.47;94893.16;6167200;28;110000;-65
2023/06/28 04:04:37;;;;;;;39.03;34.27;;;;;;;24.27;49.67;94889.75;6160845;28;108861;-66
2023/06/28 04:07:40;;;;;;;29.10;23.63;;;;;;;24.42;50.98;94886.53;6167361;28;109954;-65
2023/06/28 04:10:44;;;;;;;31.60;17.90;;;;;;;24.53;50.46;94892.25;6192151;28;109528;-66
2023/06/28 04:13:48;;;;;;;17.07;14.90;;;;;;;24.60;50.57;94895.22;6169605;28;110047;-65
2023/06/28 04:16:55;;;;;;;19.33;16.33;;;;;;;24.61;50.79;94894.91;6181327;28;109083;-68
2023/06/28 04:19:58;;;;;;;21.30;19.20;;;;;;;24.60;49.97;94898.69;6187893;28;108606;-68
2023/06/28 04:23:01;;;;;;;25.93;23.73;;;;;;;24.42;49.92;94900.69;6166086;28;108900;-66
2023/06/28 04:26:05;;;;;;;19.33;17.63;;;;;;;24.46;49.91;94890.91;6154091;28;109260;-65
2023/06/28 04:29:09;;;;;;;15.97;14.40;;;;;;;24.52;49.88;94891.47;6165061;28;109026;-67
2023/06/28 04:32:23;;;;;;;16.50;15.10;;;;;;;24.54;49.90;94897.31;6165074;28;109570;-65
2023/06/28 04:35:27;;;;;;;17.50;15.87;;;;;;;24.55;50.12;94890.06;6156057;28;109242;-62
2023/06/28 04:38:32;;;;;;;17.60;15.90;;;;;;;24.57;49.99;94888.63;6164435;28;109360;-66
2023/06/28 04:41:35;;;;;;;16.43;14.93;;;;;;;24.59;50.21;94890.97;6164667;28;110122;-66
2023/06/28 04:44:41;;;;;;;16.50;14.90;;;;;;;24.58;50.13;94894.78;6173947;28;109942;-62
2023/06/28 04:47:44;;;;;;;17.97;16.47;;;;;;;24.61;50.40;94900.25;6201553;28;109112;-63
2023/06/28 04:50:47;;;;;;;18.47;16.53;;;;;;;24.62;50.50;94891.09;6213939;28;109143;-65
2023/06/28 04:53:51;;;;;;;19.57;17.83;;;;;;;24.61;50.70;94892.22;6213713;28;109993;-62
2023/06/28 04:56:54;;;;;;;17.80;16.40;;;;;;;24.61;50.96;94902.13;6213370;28;109109;-62
2023/06/28 04:59:58;;;;;;;18.63;17.10;;;;;;;24.63;51.19;94907.94;6202869;28;109085;-61
2023/06/28 05:03:02;;;;;;;20.63;19.03;;;;;;;24.65;50.83;94906.50;6212546;28;109114;-62
2023/06/28 05:06:06;;;;;;;19.23;17.73;;;;;;;24.67;50.53;94911.53;6214315;28;108773;-63
2023/06/28 05:09:09;;;;;;;18.70;16.90;;;;;;;24.68;51.41;94913.13;6208525;28;109343;-61
2023/06/28 05:12:12;;;;;;;17.83;16.37;;;;;;;24.69;51.21;94918.16;6208478;28;110345;-60
2023/06/28 05:15:17;;;;;;;16.00;14.53;;;;;;;24.72;51.23;94909.50;6203414;28;109401;-61
2023/06/28 05:18:21;;;;;;;17.03;15.50;;;;;;;24.72;51.57;94900.69;6188388;28;108722;-61
2023/06/28 05:21:24;;;;;;;17.03;15.53;;;;;;;24.73;51.57;94902.25;6178147;28;109056;-63
2023/06/28 05:24:27;;;;;;;18.27;16.70;;;;;;;24.78;51.48;94905.50;6188648;28;109138;-61
2023/06/28 05:27:30;;;;;;;18.20;16.80;;;;;;;24.78;51.42;94910.06;6188233;28;108697;-62
2023/06/28 05:30:34;;;;;;;17.20;15.90;;;;;;;24.78;51.33;94907.41;6187757;28;109179;-69
2023/06/28 05:33:40;;;;;;;18.23;16.80;;;;;;;24.77;51.59;94914.66;6178313;28;109084;-62
2023/06/28 05:36:44;;;;;;;22.23;19.23;;;;;;;24.82;51.68;94905.63;6188650;28;109662;-61
2023/06/28 05:39:47;;;;;;;20.40;18.20;;;;;;;24.86;51.30;94908.44;6188853;28;108906;-61
2023/06/28 05:42:50;;;;;;;17.40;15.90;;;;;;;24.90;51.59;94909.38;6187834;28;109515;-62
2023/06/28 05:45:55;;;;;;;21.67;15.77;;;;;;;24.94;50.79;94904.94;6194363;28;110161;-62
2023/06/28 05:49:00;;;;;;;17.70;16.03;;;;;;;24.98;50.76;94911.97;6211554;28;109122;-65
2023/06/28 05:52:05;;;;;;;16.07;14.50;;;;;;;25.00;50.53;94917.00;6212924;28;109017;-62
2023/06/28 05:55:09;;;;;;;17.13;15.53;;;;;;;25.04;50.45;94913.34;6201928;28;109151;-60
2023/06/28 05:58:12;;;;;;;15.40;14.17;;;;;;;25.12;50.18;94908.25;6212036;28;109666;-61
2023/06/28 06:01:16;;;;;;;15.63;14.17;;;;;;;25.19;50.36;94914.63;6212460;28;109043;-60
2023/06/28 06:04:19;;;;;;;15.47;14.07;;;;;;;25.20;50.32;94910.84;6212202;28;109056;-60
2023/06/28 06:07:23;;;;;;;16.20;14.80;;;;;;;25.27;50.35;94913.00;6202617;28;110447;-60
2023/06/28 06:10:26;;;;;;;16.10;14.80;;;;;;;25.31;50.36;94908.53;6213243;28;110335;-60
2023/06/28 06:13:29;;;;;;;15.60;14.37;;;;;;;25.33;50.59;94903.63;6212830;28;109221;-60
2023/06/28 06:16:34;;;;;;;16.27;14.93;;;;;;;25.34;50.45;94900.63;6192502;28;111368;-61
2023/06/28 06:19:37;;;;;;;16.90;15.50;;;;;;;25.40;50.49;94908.50;6176103;28;109098;-61
2023/06/28 06:22:40;;;;;;;16.70;15.20;;;;;;;25.41;50.75;94905.50;6187766;28;110271;-60
2023/06/28 06:25:43;;;;;;;15.90;14.43;;;;;;;25.44;50.58;94902.16;6187433;28;109072;-61
2023/06/28 06:28:46;;;;;;;16.90;15.70;;;;;;;25.41;51.15;94902.81;6182924;28;111579;-65
2023/06/28 06:31:50;;;;;;;17.40;16.10;;;;;;;25.42;50.44;94912.41;6182375;28;110009;-61
2023/06/28 06:34:57;;;;;;;17.23;15.83;;;;;;;25.45;50.92;94919.00;6187419;28;109812;-60
2023/06/28 06:38:00;;;;;;;17.30;15.90;;;;;;;25.46;50.66;94917.88;6187291;28;109632;-61
2023/06/28 06:41:03;;;;;;;15.97;14.67;;;;;;;25.50;50.50;94903.50;6177697;28;109732;-60
2023/06/28 06:44:06;;;;;;;17.43;16.03;;;;;;;25.54;50.51;94903.59;6186675;28;109615;-60
2023/06/28 06:47:11;;;;;;;16.60;15.40;;;;;;;25.58;50.60;94904.53;6211115;28;109039;-64
2023/06/28 06:50:14;;;;;;;17.90;16.30;;;;;;;25.63;50.28;94913.13;6210367;28;109185;-60
2023/06/28 06:53:18;;;;;;;18.17;16.57;;;;;;;25.67;50.33;94910.56;6200856;28;109060;-60
2023/06/28 06:56:22;;;;;;;17.07;15.77;;;;;;;25.72;50.37;94909.59;6211061;28;109392;-60
2023/06/28 06:59:26;;;;;;;16.87;15.47;;;;;;;25.76;50.34;94910.50;6211214;28;109049;-60
2023/06/28 07:02:33;;;;;;;16.17;15.00;;;;;;;25.79;49.90;94899.88;6207012;28;109320;-61
2023/06/28 07:05:36;;;;;;;17.50;16.23;;;;;;;25.81;50.20;94902.22;6204886;28;109130;-66
2023/06/28 07:08:39;;;;;;;16.10;14.90;;;;;;;25.86;49.30;94893.97;6211683;28;108517;-68
2023/06/28 07:11:43;;;;;;;16.83;15.53;;;;;;;25.89;49.19;94896.00;6211932;28;109023;-66
2023/06/28 07:14:46;;;;;;;15.73;14.60;;;;;;;25.92;49.72;94898.00;6196735;28;109295;-64
2023/06/28 07:17:52;;;;;;;16.87;15.57;;;;;;;25.93;49.36;94894.22;6186453;28;110191;-65
2023/06/28 07:20:56;;;;;;;16.27;15.00;;;;;;;25.98;49.33;94902.03;6185654;28;109141;-66
2023/06/28 07:23:59;;;;;;;16.30;15.00;;;;;;;26.00;49.05;94894.44;6186345;28;108849;-66
2023/06/28 07:27:02;;;;;;;15.57;14.37;;;;;;;26.04;49.00;94892.66;6176160;28;109616;-66
2023/06/28 07:30:08;;;;;;;16.10;14.70;;;;;;;26.06;48.65;94897.72;6186116;28;109062;-67
2023/06/28 07:33:13;;;;;;;16.27;15.07;;;;;;;26.08;48.87;94893.56;6185710;28;109130;-66
2023/06/28 07:36:16;;;;;;;15.90;14.70;;;;;;;26.02;48.26;94899.47;6186184;28;110617;-66
2023/06/28 07:39:19;;;;;;;15.87;14.50;;;;;;;26.10;48.25;94898.59;6175255;28;111428;-65
2023/06/28 07:42:23;;;;;;;15.97;14.73;;;;;;;26.05;48.35;94899.63;6186888;28;110198;-66
2023/06/28 07:45:27;;;;;;;14.87;13.87;;;;;;;25.97;48.67;94905.81;6196941;28;109196;-67
2023/06/28 07:48:32;;;;;;;15.33;14.13;;;;;;;26.06;47.92;94903.88;6204726;28;109042;-74
2023/06/28 07:51:35;;;;;;;15.43;14.23;;;;;;;26.11;47.85;94902.84;6205337;28;108923;-65
2023/06/28 07:54:38;;;;;;;14.63;13.53;;;;;;;26.12;47.69;94899.84;6212538;28;110222;-66
2023/06/28 07:57:41;;;;;;;15.00;13.70;;;;;;;26.12;48.36;94907.09;6215083;28;110333;-66
2023/06/28 08:00:44;;;;;;;14.97;13.77;;;;;;;26.10;47.76;94910.13;6204345;28;109039;-68
2023/06/28 08:03:49;;;;;;;14.47;13.47;;;;;;;26.11;48.19;94905.53;6214091;28;109197;-67
2023/06/28 08:06:52;;;;;;;13.77;12.77;;;;;;;26.10;47.69;94906.66;6214313;28;109070;-66
2023/06/28 08:09:55;;;;;;;14.93;13.53;;;;;;;26.13;48.07;94908.66;6214890;28;110563;-60
2023/06/28 08:12:58;;;;;;;13.87;12.87;;;;;;;26.13;47.65;94897.94;6203585;28;109216;-60
2023/06/28 08:16:01;;;;;;;15.10;13.87;;;;;;;26.07;47.46;94896.59;6199852;28;109016;-60
2023/06/28 08:19:06;;;;;;;14.33;13.30;;;;;;;26.10;47.92;94896.72;6189791;28;110302;-62
2023/06/28 08:22:09;;;;;;;14.60;13.50;;;;;;;26.15;47.84;94887.66;6183676;28;109046;-60
2023/06/28 08:25:12;;;;;;;14.30;13.10;;;;;;;26.20;47.09;94896.25;6183985;28;110303;-61
2023/06/28 08:28:15;;;;;;;12.47;11.57;;;;;;;26.21;46.89;94897.03;6189443;28;109450;-59
2023/06/28 08:31:18;;;;;;;13.30;12.30;;;;;;;26.21;46.96;94897.84;6189369;28;109037;-62
2023/06/28 08:34:23;;;;;;;15.20;14.03;;;;;;;26.22;47.12;94898.63;6178819;28;109165;-62
2023/06/28 08:37:26;;;;;;;18.87;17.57;;;;;;;26.21;46.78;94884.41;6189125;28;109372;-61
2023/06/28 08:40:30;;;;;;;19.50;18.00;;;;;;;26.18;47.36;94878.94;6188980;28;109057;-62
2023/06/28 08:43:34;;;;;;;18.13;16.83;;;;;;;26.20;46.87;94880.16;6189072;28;109342;-61
2023/06/28 08:46:37;;;;;;;20.80;19.13;;;;;;;26.22;46.98;94885.97;6198063;28;109214;-60
2023/06/28 08:49:43;;;;;;;20.83;19.17;;;;;;;26.19;47.14;94878.59;6213623;28;108557;-61
2023/06/28 08:52:47;;;;;;;20.00;18.40;;;;;;;26.19;47.28;94875.91;6212615;28;108739;-60
2023/06/28 08:55:51;;;;;;;18.93;17.43;;;;;;;26.24;46.76;94872.22;6213808;28;109102;-61
2023/06/28 08:58:57;;;;;;;18.80;17.40;;;;;;;26.25;46.93;94868.44;6203485;28;109223;-61
2023/06/28 09:02:01;;;;;;;18.10;16.60;;;;;;;26.28;46.78;94870.44;6212859;28;109602;-60
2023/06/28 09:05:08;;;;;;;17.07;15.67;;;;;;;26.32;47.07;94865.94;6213011;28;109335;-60
2023/06/28 09:08:12;;;;;;;16.30;15.00;;;;;;;26.31;46.56;94866.28;6203717;28;109376;-62
2023/06/28 09:11:17;;;;;;;17.17;15.83;;;;;;;26.31;46.71;94863.59;6212936;28;109266;-60
2023/06/28 09:14:20;;;;;;;15.80;14.57;;;;;;;26.32;46.69;94870.53;6213533;28;111552;-60
2023/06/28 09:17:23;;;;;;;15.50;14.20;;;;;;;26.34;46.86;94877.13;6188468;28;109081;-60
2023/06/28 09:20:28;;;;;;;15.07;13.87;;;;;;;26.39;46.66;94858.13;6178470;28;109418;-60
2023/06/28 09:23:34;;;;;;;14.80;13.70;;;;;;;26.40;46.19;94858.91;6187997;28;111686;-60
2023/06/28 09:26:37;;;;;;;14.20;13.00;;;;;;;26.40;46.38;94866.97;6189149;28;109563;-60
2023/06/28 09:29:40;;;;;;;14.83;13.70;;;;;;;26.35;46.77;94859.13;6188470;28;109144;-60
2023/06/28 09:32:45;;;;;;;14.30;13.30;;;;;;;26.36;46.00;94858.78;6177822;28;109213;-60
2023/06/28 09:35:54;;;;;;;13.80;12.70;;;;;;;26.36;46.17;94848.06;6188206;28;109154;-60
2023/06/28 09:38:57;;;;;;;14.30;13.20;;;;;;;26.35;45.95;94851.06;6188103;28;109063;-62
2023/06/28 09:42:03;;;;;;;13.60;12.60;;;;;;;26.37;46.12;94849.63;6183361;28;113089;-59
2023/06/28 09:45:07;;;;;;;13.10;12.10;;;;;;;26.38;46.44;94845.84;6190409;28;110068;-61
2023/06/28 09:48:10;;;;;;;13.17;12.17;;;;;;;26.41;45.89;94841.69;6212509;28;109087;-61
2023/06/28 09:51:17;;;;;;;14.37;13.07;;;;;;;26.37;46.57;94841.56;6212856;28;110058;-62
2023/06/28 09:54:20;;;;;;;13.33;12.23;;;;;;;26.36;46.36;94847.28;6201382;28;110432;-62
2023/06/28 09:57:25;;;;;;;13.27;12.27;;;;;;;26.37;45.83;94843.47;6212412;28;109164;-62
2023/06/28 10:00:30;;;;;;;13.40;12.30;;;;;;;26.33;46.08;94837.22;6212669;28;110057;-62
2023/06/28 10:03:34;;;;;;;13.83;12.83;;;;;;;26.33;46.09;94837.22;6211885;28;110237;-62
2023/06/28 10:06:42;;;;;;;12.47;11.50;;;;;;;26.35;46.36;94840.34;6201592;28;109162;-62
2023/06/28 10:09:45;;;;;;;13.00;12.10;;;;;;;26.32;46.51;94841.81;6212461;28;109395;-61
2023/06/28 10:12:50;;;;;;;12.90;11.83;;;;;;;26.32;45.87;94836.44;6211715;28;109040;-62
2023/06/28 10:15:57;;;;;;;12.33;11.53;;;;;;;26.27;46.44;94840.16;6194685;28;109784;-62
2023/06/28 10:19:01;;;;;;;13.50;12.50;;;;;;;26.25;46.17;94834.34;6181606;28;109157;-62
2023/06/28 10:22:06;;;;;;;11.90;11.03;;;;;;;26.26;45.92;94835.91;6187142;28;109076;-60
2023/06/28 10:25:10;;;;;;;12.70;11.70;;;;;;;26.28;46.07;94833.66;6186160;28;109037;-60
2023/06/28 10:28:14;;;;;;;13.53;12.47;;;;;;;26.32;46.26;94831.06;6176714;28;109057;-60
2023/06/28 10:31:18;;;;;;;13.67;12.50;;;;;;;26.36;46.33;94826.59;6187241;28;109234;-60
2023/06/28 10:34:22;;;;;;;11.93;11.03;;;;;;;26.39;46.17;94828.63;6187219;28;109405;-60
2023/06/28 10:37:27;;;;;;;12.40;11.50;;;;;;;26.42;46.04;94832.53;6187480;28;109062;-65
2023/06/28 10:40:30;;;;;;;11.93;11.03;;;;;;;26.45;46.12;94829.94;6195361;28;110096;-66
2023/06/28 10:43:34;;;;;;;12.23;11.33;;;;;;;26.42;45.81;94835.22;6211449;28;109352;-65
2023/06/28 10:46:38;;;;;;;12.87;11.77;;;;;;;26.43;46.42;94824.13;6212172;28;110164;-66
2023/06/28 10:49:41;;;;;;;12.83;11.73;;;;;;;26.40;46.10;94822.13;6208400;28;109125;-65
2023/06/28 10:52:51;;;;;;;12.30;11.33;;;;;;;26.35;45.81;94816.19;6205228;28;110838;-66
2023/06/28 10:56:08;;;;;;;12.87;11.53;;;;;;;26.28;45.69;94814.09;6210573;28;109344;-66
2023/06/28 10:59:11;;;;;;;12.37;11.20;;;;;;;26.24;45.72;94808.63;6207548;28;108936;-68
2023/06/28 11:02:14;;;;;;;11.23;10.33;;;;;;;26.23;45.83;94809.75;6199827;28;109572;-66
2023/06/28 11:05:37;;;;;;;12.23;11.23;;;;;;;26.20;46.11;94801.56;6211833;28;111911;-67
2023/06/28 11:08:43;;;;;;;13.07;11.90;;;;;;;26.26;45.82;94800.25;6210906;28;109423;-67
2023/06/28 11:11:57;;;;;;;11.67;10.87;;;;;;;26.18;45.84;94801.91;6211008;28;109132;-68
2023/06/28 11:15:07;;;;;;;12.47;11.27;;;;;;;26.15;45.59;94807.97;6195736;28;109461;-67
2023/06/28 11:18:13;;;;;;;11.97;10.90;;;;;;;26.17;45.56;94810.31;6186503;28;109043;-66
2023/06/28 11:21:18;;;;;;;12.03;11.13;;;;;;;26.15;46.05;94809.84;6186308;28;108833;-67
2023/06/28 11:24:41;;;;;;;12.43;11.33;;;;;;;26.21;45.41;94798.59;6181642;28;109376;-68
2023/06/28 11:27:47;;;;;;;13.97;10.77;;;;;;;26.22;45.45;94807.41;6184915;28;109224;-67
2023/06/28 11:30:51;;;;;;;12.47;11.57;;;;;;;26.24;45.13;94803.25;6185719;28;109199;-67
2023/06/28 11:33:55;;;;;;;12.60;11.43;;;;;;;26.26;45.06;94811.75;6185692;28;109093;-67
2023/06/28 11:36:58;;;;;;;11.40;10.50;;;;;;;26.18;45.19;94799.22;6175964;28;109200;-67
2023/06/28 11:40:04;;;;;;;12.07;11.17;;;;;;;26.13;45.13;94793.31;6186021;28;110397;-67
2023/06/28 11:43:07;;;;;;;12.73;11.83;;;;;;;26.15;45.07;94796.44;6185918;28;108797;-68
2023/06/28 11:46:10;;;;;;;11.57;10.67;;;;;;;26.28;44.85;94793.41;6200768;28;109082;-61
2023/06/28 11:49:15;;;;;;;12.60;11.60;;;;;;;26.26;45.37;94794.88;6199477;28;109597;-61
2023/06/28 11:52:20;;;;;;;11.70;10.80;;;;;;;26.22;44.53;94788.63;6192693;28;109055;-60
2023/06/28 11:55:28;;;;;;;11.50;10.60;;;;;;;26.25;44.68;94791.41;6185793;28;109319;-63
2023/06/28 11:58:32;;;;;;;11.73;10.83;;;;;;;26.30;44.19;94801.13;6177078;28;109133;-61
2023/06/28 12:01:35;;;;;;;10.90;10.07;;;;;;;26.25;44.93;94804.81;6184106;28;110167;-62
2023/06/28 12:04:39;;;;;;;11.20;10.30;;;;;;;26.24;44.11;94808.63;6185537;28;109054;-60
2023/06/28 12:07:44;;;;;;;11.30;10.40;;;;;;;26.27;44.46;94804.50;6184617;28;109038;-60
2023/06/28 12:10:50;;;;;;;10.70;9.80;;;;;;;26.29;43.82;94821.03;6174794;28;109593;-60
2023/06/28 12:14:04;;;;;;;9.73;9.00;;;;;;;26.25;44.49;94826.28;6184700;28;109473;-61
2023/06/28 12:17:07;;;;;;;10.70;9.80;;;;;;;26.24;44.22;94824.72;6207319;28;110233;-60
2023/06/28 12:20:12;;;;;;;10.47;9.67;;;;;;;26.16;44.55;94824.84;6209885;28;110156;-60
2023/06/28 12:23:16;;;;;;;10.20;9.30;;;;;;;26.10;44.59;94818.94;6198807;28;109080;-60
2023/06/28 12:26:23;;;;;;;9.27;8.47;;;;;;;26.19;43.79;94830.31;6209610;28;109666;-60
2023/06/28 12:29:29;;;;;;;9.53;8.73;;;;;;;26.19;44.10;94843.72;6208625;28;109319;-60
2023/06/28 12:32:32;;;;;;;8.83;8.07;;;;;;;26.20;44.00;94844.50;6203604;28;109045;-62
2023/06/28 12:35:35;;;;;;;9.30;8.60;;;;;;;26.19;43.76;94843.72;6206483;28;111184;-61
2023/06/28 12:38:44;;;;;;;9.27;8.57;;;;;;;26.15;44.23;94836.69;6189327;28;110371;-60
2023/06/28 12:42:01;;;;;;;7.47;6.87;;;;;;;26.01;43.59;94847.75;6188845;28;111168;-57
2023/06/28 12:45:06;;;;;;;9.20;8.50;;;;;;;25.87;44.27;94856.09;6182951;28;109139;-61
2023/06/28 12:48:09;;;;;;;9.10;8.20;;;;;;;26.03;43.97;94850.09;6213603;28;109307;-61
2023/06/28 12:51:13;;;;;;;7.60;6.90;;;;;;;26.11;43.60;94841.16;6213835;28;109324;-60
2023/06/28 12:54:16;;;;;;;7.90;7.20;;;;;;;26.09;43.84;94841.50;6212979;28;109545;-60
2023/06/28 12:57:22;;;;;;;7.73;6.97;;;;;;;26.02;44.13;94835.91;6204160;28;109344;-68
2023/06/28 13:00:25;;;;;;;7.63;6.77;;;;;;;26.15;43.76;94826.75;6212591;28;109081;-66
2023/06/28 13:03:28;;;;;;;8.40;6.73;;;;;;;26.17;43.78;94835.22;6212320;28;109133;-66
2023/06/28 13:06:31;;;;;;;7.10;6.50;;;;;;;26.18;43.67;94836.00;6208035;28;109099;-67
2023/06/28 13:09:35;;;;;;;7.03;6.47;;;;;;;26.17;43.16;94843.28;6207957;28;109294;-67
2023/06/28 13:12:39;;;;;;;7.10;6.47;;;;;;;26.17;43.45;94845.94;6214239;28;109106;-66
2023/06/28 13:15:43;;;;;;;6.60;6.10;;;;;;;26.19;43.51;94842.94;6203324;28;108791;-66
2023/06/28 13:18:46;;;;;;;6.90;6.37;;;;;;;26.18;43.94;94841.38;6177840;28;109993;-66
2023/06/28 13:21:51;;;;;;;6.70;6.20;;;;;;;26.14;43.98;94852.00;6188948;28;110031;-67
2023/06/28 13:24:54;;;;;;;7.40;6.80;;;;;;;26.13;43.56;94858.47;6188323;28;109028;-67
2023/06/28 13:27:59;;;;;;;7.20;6.60;;;;;;;26.11;43.39;94867.97;6188244;28;109429;-67
2023/06/28 13:31:02;;;;;;;6.33;5.83;;;;;;;26.05;43.69;94861.28;6178083;28;109417;-66
2023/06/28 13:34:05;;;;;;;6.67;6.17;;;;;;;26.06;43.45;94877.03;6188763;28;108877;-67
2023/06/28 13:37:08;;;;;;;6.60;6.00;;;;;;;26.08;43.28;94880.16;6188026;28;109224;-66
2023/06/28 13:40:29;;;;;;;7.13;6.30;;;;;;;26.05;43.58;94880.06;6183079;28;109168;-78
2023/06/28 13:43:34;;;;;;;6.30;5.80;;;;;;;26.03;43.30;94893.78;6182525;28;109038;-67
2023/06/28 13:46:38;;;;;;;7.30;6.37;;;;;;;26.00;43.50;94894.44;6205354;28;109612;-67
2023/06/28 13:49:41;;;;;;;6.37;5.87;;;;;;;26.02;43.33;94902.16;6212992;28;109493;-66
2023/06/28 13:52:44;;;;;;;6.17;5.67;;;;;;;25.90;43.49;94900.25;6200902;28;109088;-66
2023/06/28 13:55:47;;;;;;;6.33;5.83;;;;;;;25.90;43.94;94900.25;6213138;28;112422;-66
2023/06/28 13:58:52;;;;;;;6.57;5.33;;;;;;;25.87;42.90;94900.88;6212293;28;109212;-62
2023/06/28 14:01:55;;;;;;;6.60;5.97;;;;;;;25.81;43.64;94912.94;6211084;28;109961;-62
2023/06/28 14:04:58;;;;;;;5.67;5.20;;;;;;;25.78;43.29;94908.25;6201583;28;110114;-62